sensor_id;sensor_type;location;lat;lon;timestamp;temperature;humidity
2174;DHT22;1093;51.424;11.764;2023-12-20T00:06:12;5.80;1.40
2174;DHT22;1093;51.424;11.764;2023-12-20T00:09:21;5.80;1.40
2174;DHT22;1093;51.424;11.764;2023-12-20T00:19:32;5.80;1.40
2174;DHT22;1093;51.424;11.764;2023-12-20T01:19:15;5.80;1.40
2174;DHT22;1093;51.424;11.764;2023-12-20T01:22:27;5.80;1.40
2174;DHT22;1093;51.424;11.764;2023-12-20T01:52:18;6.20;1.40
2174;DHT22;1093;51.424;11.764;2023-12-20T02:08:35;6.20;1.40
2174;DHT22;1093;51.424;11.764;2023-12-20T02:14:22;6.30;1.40
2174;DHT22;1093;51.424;11.764;2023-12-20T02:17:11;6.20;1.40
2174;DHT22;1093;51.424;11.764;2023-12-20T02:23:37;6.10;1.40
2174;DHT22;1093;51.424;11.764;2023-12-20T02:26:05;6.00;1.40
2174;DHT22;1093;51.424;11.764;2023-12-20T02:28:32;6.00;1.40
2174;DHT22;1093;51.424;11.764;2023-12-20T02:31:01;6.00;1.40
2174;DHT22;1093;51.424;11.764;2023-12-20T02:33:28;6.00;1.40
2174;DHT22;1093;51.424;11.764;2023-12-20T02:35:55;6.00;1.40
2174;DHT22;1093;51.424;11.764;2023-12-20T02:38:21;6.00;1.40
2174;DHT22;1093;51.424;11.764;2023-12-20T02:40:49;6.00;1.40
2174;DHT22;1093;51.424;11.764;2023-12-20T02:43:16;6.00;1.40
2174;DHT22;1093;51.424;11.764;2023-12-20T02:45:43;6.00;1.40
2174;DHT22;1093;51.424;11.764;2023-12-20T02:48:10;5.90;1.40
2174;DHT22;1093;51.424;11.764;2023-12-20T02:50:37;5.90;1.40
2174;DHT22;1093;51.424;11.764;2023-12-20T02:53:04;5.90;1.40
2174;DHT22;1093;51.424;11.764;2023-12-20T02:55:30;6.00;1.40
2174;DHT22;1093;51.424;11.764;2023-12-20T02:57:58;6.00;1.40
2174;DHT22;1093;51.424;11.764;2023-12-20T03:00:25;6.00;1.40
2174;DHT22;1093;51.424;11.764;2023-12-20T03:02:51;6.00;1.40
2174;DHT22;1093;51.424;11.764;2023-12-20T03:05:18;6.10;1.40
2174;DHT22;1093;51.424;11.764;2023-12-20T03:07:46;6.10;1.40
2174;DHT22;1093;51.424;11.764;2023-12-20T03:10:14;6.10;1.40
2174;DHT22;1093;51.424;11.764;2023-12-20T03:12:41;6.10;1.40
2174;DHT22;1093;51.424;11.764;2023-12-20T03:15:10;6.00;1.40
2174;DHT22;1093;51.424;11.764;2023-12-20T03:17:37;6.10;1.40
2174;DHT22;1093;51.424;11.764;2023-12-20T03:20:05;6.00;1.40
2174;DHT22;1093;51.424;11.764;2023-12-20T03:22:32;6.00;1.40
2174;DHT22;1093;51.424;11.764;2023-12-20T03:24:59;6.00;1.40
2174;DHT22;1093;51.424;11.764;2023-12-20T03:27:26;6.00;1.40
2174;DHT22;1093;51.424;11.764;2023-12-20T03:29:53;6.10;1.40
2174;DHT22;1093;51.424;11.764;2023-12-20T03:32:22;6.00;1.40
2174;DHT22;1093;51.424;11.764;2023-12-20T03:34:49;6.10;1.40
2174;DHT22;1093;51.424;11.764;2023-12-20T03:37:22;6.10;1.40
2174;DHT22;1093;51.424;11.764;2023-12-20T03:40:00;6.10;1.40
2174;DHT22;1093;51.424;11.764;2023-12-20T03:42:28;6.10;1.40
2174;DHT22;1093;51.424;11.764;2023-12-20T03:44:56;6.10;1.40
2174;DHT22;1093;51.424;11.764;2023-12-20T03:47:40;6.20;1.40
2174;DHT22;1093;51.424;11.764;2023-12-20T03:50:07;6.20;1.40
2174;DHT22;1093;51.424;11.764;2023-12-20T03:52:34;6.20;1.40
2174;DHT22;1093;51.424;11.764;2023-12-20T03:55:05;6.20;1.40
2174;DHT22;1093;51.424;11.764;2023-12-20T03:57:59;6.20;1.40
2174;DHT22;1093;51.424;11.764;2023-12-20T04:00:35;6.20;1.40
2174;DHT22;1093;51.424;11.764;2023-12-20T04:03:11;6.20;1.40
2174;DHT22;1093;51.424;11.764;2023-12-20T04:05:59;6.20;1.40
2174;DHT22;1093;51.424;11.764;2023-12-20T04:12:28;6.20;1.40
2174;DHT22;1093;51.424;11.764;2023-12-20T04:22:13;6.20;1.40
2174;DHT22;1093;51.424;11.764;2023-12-20T04:25:08;6.20;1.40
2174;DHT22;1093;51.424;11.764;2023-12-20T04:28:20;6.20;1.40
2174;DHT22;1093;51.424;11.764;2023-12-20T04:31:10;6.10;1.40
2174;DHT22;1093;51.424;11.764;2023-12-20T04:34:10;6.10;1.40
2174;DHT22;1093;51.424;11.764;2023-12-20T04:36:44;6.20;1.40
2174;DHT22;1093;51.424;11.764;2023-12-20T04:39:32;6.10;1.40
2174;DHT22;1093;51.424;11.764;2023-12-20T04:42:28;6.10;1.40
2174;DHT22;1093;51.424;11.764;2023-12-20T04:45:33;6.10;1.40
2174;DHT22;1093;51.424;11.764;2023-12-20T04:54:47;6.00;1.40
2174;DHT22;1093;51.424;11.764;2023-12-20T05:00:27;6.10;1.40
2174;DHT22;1093;51.424;11.764;2023-12-20T05:04:27;6.00;1.40
2174;DHT22;1093;51.424;11.764;2023-12-20T05:07:22;6.00;1.40
2174;DHT22;1093;51.424;11.764;2023-12-20T05:13:29;5.90;1.40
2174;DHT22;1093;51.424;11.764;2023-12-20T05:16:12;5.90;1.40
2174;DHT22;1093;51.424;11.764;2023-12-20T05:18:48;5.90;1.40
2174;DHT22;1093;51.424;11.764;2023-12-20T05:21:29;5.80;1.40
2174;DHT22;1093;51.424;11.764;2023-12-20T05:24:19;5.80;1.40
2174;DHT22;1093;51.424;11.764;2023-12-20T05:26:50;5.80;1.40
2174;DHT22;1093;51.424;11.764;2023-12-20T05:29:35;5.70;1.40
2174;DHT22;1093;51.424;11.764;2023-12-20T05:32:24;5.80;1.40
2174;DHT22;1093;51.424;11.764;2023-12-20T05:38:40;5.80;1.40
2174;DHT22;1093;51.424;11.764;2023-12-20T05:41:34;5.70;1.40
2174;DHT22;1093;51.424;11.764;2023-12-20T06:01:08;5.60;1.40
2174;DHT22;1093;51.424;11.764;2023-12-20T06:04:29;5.50;1.40
2174;DHT22;1093;51.424;11.764;2023-12-20T06:07:34;5.40;1.40
2174;DHT22;1093;51.424;11.764;2023-12-20T06:10:28;5.40;1.40
2174;DHT22;1093;51.424;11.764;2023-12-20T06:47:37;5.30;1.40
2174;DHT22;1093;51.424;11.764;2023-12-20T06:50:04;5.40;1.40
2174;DHT22;1093;51.424;11.764;2023-12-20T06:52:31;5.40;1.40
2174;DHT22;1093;51.424;11.764;2023-12-20T06:54:57;5.40;1.40
2174;DHT22;1093;51.424;11.764;2023-12-20T06:57:24;5.40;1.40
2174;DHT22;1093;51.424;11.764;2023-12-20T06:59:52;5.30;1.40
2174;DHT22;1093;51.424;11.764;2023-12-20T07:02:19;5.30;1.40
2174;DHT22;1093;51.424;11.764;2023-12-20T07:04:48;5.30;1.40
2174;DHT22;1093;51.424;11.764;2023-12-20T07:07:14;5.30;1.40
2174;DHT22;1093;51.424;11.764;2023-12-20T07:09:42;5.40;1.40
2174;DHT22;1093;51.424;11.764;2023-12-20T07:12:08;5.40;1.40
2174;DHT22;1093;51.424;11.764;2023-12-20T07:14:35;5.40;1.40
2174;DHT22;1093;51.424;11.764;2023-12-20T07:17:02;5.40;1.40
2174;DHT22;1093;51.424;11.764;2023-12-20T07:19:29;5.40;1.40
2174;DHT22;1093;51.424;11.764;2023-12-20T07:21:59;5.40;1.40
2174;DHT22;1093;51.424;11.764;2023-12-20T07:24:26;5.40;1.40
2174;DHT22;1093;51.424;11.764;2023-12-20T07:26:53;5.40;1.40
2174;DHT22;1093;51.424;11.764;2023-12-20T07:29:19;5.40;1.40
2174;DHT22;1093;51.424;11.764;2023-12-20T07:31:46;5.40;1.40
2174;DHT22;1093;51.424;11.764;2023-12-20T07:34:13;5.50;1.40
2174;DHT22;1093;51.424;11.764;2023-12-20T07:36:40;5.60;1.40
2174;DHT22;1093;51.424;11.764;2023-12-20T07:39:08;5.60;1.40
2174;DHT22;1093;51.424;11.764;2023-12-20T07:41:35;5.60;1.40
2174;DHT22;1093;51.424;11.764;2023-12-20T07:44:02;5.60;1.40
2174;DHT22;1093;51.424;11.764;2023-12-20T07:46:28;5.60;1.40
2174;DHT22;1093;51.424;11.764;2023-12-20T07:48:55;5.60;1.40
2174;DHT22;1093;51.424;11.764;2023-12-20T07:51:22;5.60;1.40
2174;DHT22;1093;51.424;11.764;2023-12-20T07:53:49;5.60;1.40
2174;DHT22;1093;51.424;11.764;2023-12-20T07:56:18;5.60;1.40
2174;DHT22;1093;51.424;11.764;2023-12-20T07:58:47;5.60;1.40
2174;DHT22;1093;51.424;11.764;2023-12-20T08:01:16;5.60;1.40
2174;DHT22;1093;51.424;11.764;2023-12-20T08:03:44;5.50;1.40
2174;DHT22;1093;51.424;11.764;2023-12-20T08:06:13;5.50;1.40
2174;DHT22;1093;51.424;11.764;2023-12-20T08:08:40;5.60;1.40
2174;DHT22;1093;51.424;11.764;2023-12-20T08:11:07;5.60;1.40
2174;DHT22;1093;51.424;11.764;2023-12-20T08:13:35;5.60;1.40
2174;DHT22;1093;51.424;11.764;2023-12-20T08:16:02;5.60;1.40
2174;DHT22;1093;51.424;11.764;2023-12-20T08:18:29;5.60;1.40
2174;DHT22;1093;51.424;11.764;2023-12-20T08:20:56;5.60;1.40
2174;DHT22;1093;51.424;11.764;2023-12-20T08:23:23;5.60;1.40
2174;DHT22;1093;51.424;11.764;2023-12-20T08:25:50;5.60;1.40
2174;DHT22;1093;51.424;11.764;2023-12-20T08:28:16;5.60;1.40
2174;DHT22;1093;51.424;11.764;2023-12-20T08:30:45;5.60;1.40
2174;DHT22;1093;51.424;11.764;2023-12-20T08:33:12;5.60;1.40
2174;DHT22;1093;51.424;11.764;2023-12-20T08:35:39;5.60;1.40
2174;DHT22;1093;51.424;11.764;2023-12-20T08:38:06;5.70;1.40
2174;DHT22;1093;51.424;11.764;2023-12-20T08:40:33;5.80;1.40
2174;DHT22;1093;51.424;11.764;2023-12-20T08:42:59;5.80;1.40
2174;DHT22;1093;51.424;11.764;2023-12-20T08:45:26;5.90;1.40
2174;DHT22;1093;51.424;11.764;2023-12-20T08:47:54;5.90;1.40
2174;DHT22;1093;51.424;11.764;2023-12-20T08:50:21;6.00;1.40
2174;DHT22;1093;51.424;11.764;2023-12-20T08:52:48;6.00;1.40
2174;DHT22;1093;51.424;11.764;2023-12-20T08:55:15;6.10;1.40
2174;DHT22;1093;51.424;11.764;2023-12-20T08:57:43;6.10;1.40
2174;DHT22;1093;51.424;11.764;2023-12-20T09:00:11;6.10;1.40
2174;DHT22;1093;51.424;11.764;2023-12-20T09:02:38;6.20;1.40
2174;DHT22;1093;51.424;11.764;2023-12-20T09:05:07;6.30;1.40
2174;DHT22;1093;51.424;11.764;2023-12-20T09:07:34;6.30;1.40
2174;DHT22;1093;51.424;11.764;2023-12-20T09:10:00;6.50;1.40
2174;DHT22;1093;51.424;11.764;2023-12-20T09:12:28;6.60;1.40
2174;DHT22;1093;51.424;11.764;2023-12-20T09:14:54;6.70;1.40
2174;DHT22;1093;51.424;11.764;2023-12-20T09:17:21;6.70;1.40
2174;DHT22;1093;51.424;11.764;2023-12-20T09:19:49;6.80;1.40
2174;DHT22;1093;51.424;11.764;2023-12-20T09:22:19;6.90;1.40
2174;DHT22;1093;51.424;11.764;2023-12-20T09:24:46;6.90;1.40
2174;DHT22;1093;51.424;11.764;2023-12-20T09:27:12;7.00;1.40
2174;DHT22;1093;51.424;11.764;2023-12-20T09:29:39;7.00;1.40
2174;DHT22;1093;51.424;11.764;2023-12-20T09:32:06;7.00;1.40
2174;DHT22;1093;51.424;11.764;2023-12-20T09:34:33;7.00;1.40
2174;DHT22;1093;51.424;11.764;2023-12-20T09:37:00;7.10;1.40
2174;DHT22;1093;51.424;11.764;2023-12-20T09:39:29;7.00;1.40
2174;DHT22;1093;51.424;11.764;2023-12-20T09:42:00;7.10;1.40
2174;DHT22;1093;51.424;11.764;2023-12-20T09:44:28;7.10;1.40
2174;DHT22;1093;51.424;11.764;2023-12-20T09:46:55;7.20;1.40
2174;DHT22;1093;51.424;11.764;2023-12-20T09:49:22;7.10;1.40
2174;DHT22;1093;51.424;11.764;2023-12-20T09:51:50;7.10;1.40
2174;DHT22;1093;51.424;11.764;2023-12-20T09:54:18;7.10;1.40
2174;DHT22;1093;51.424;11.764;2023-12-20T09:56:46;7.10;1.40
2174;DHT22;1093;51.424;11.764;2023-12-20T09:59:14;7.10;1.40
2174;DHT22;1093;51.424;11.764;2023-12-20T10:01:41;7.10;1.40
2174;DHT22;1093;51.424;11.764;2023-12-20T10:04:10;7.20;1.40
2174;DHT22;1093;51.424;11.764;2023-12-20T10:06:39;7.10;1.40
2174;DHT22;1093;51.424;11.764;2023-12-20T10:09:06;7.10;1.40
2174;DHT22;1093;51.424;11.764;2023-12-20T10:11:35;7.20;1.40
2174;DHT22;1093;51.424;11.764;2023-12-20T10:14:04;7.20;1.40
2174;DHT22;1093;51.424;11.764;2023-12-20T10:16:31;7.20;1.40
2174;DHT22;1093;51.424;11.764;2023-12-20T10:18:59;7.20;1.40
2174;DHT22;1093;51.424;11.764;2023-12-20T10:21:26;7.30;1.40
2174;DHT22;1093;51.424;11.764;2023-12-20T10:23:53;7.30;1.40
2174;DHT22;1093;51.424;11.764;2023-12-20T10:26:21;7.40;1.40
2174;DHT22;1093;51.424;11.764;2023-12-20T10:28:50;7.40;1.40
2174;DHT22;1093;51.424;11.764;2023-12-20T10:31:33;7.40;1.40
2174;DHT22;1093;51.424;11.764;2023-12-20T10:34:02;7.40;1.40
2174;DHT22;1093;51.424;11.764;2023-12-20T10:36:30;7.40;1.40
2174;DHT22;1093;51.424;11.764;2023-12-20T10:38:58;7.50;1.40
2174;DHT22;1093;51.424;11.764;2023-12-20T10:41:26;7.50;1.40
2174;DHT22;1093;51.424;11.764;2023-12-20T10:43:56;7.50;1.40
2174;DHT22;1093;51.424;11.764;2023-12-20T10:46:25;7.50;1.40
2174;DHT22;1093;51.424;11.764;2023-12-20T10:48:55;7.50;1.40
2174;DHT22;1093;51.424;11.764;2023-12-20T10:51:22;7.50;1.40
2174;DHT22;1093;51.424;11.764;2023-12-20T10:53:50;7.60;1.40
2174;DHT22;1093;51.424;11.764;2023-12-20T10:56:18;7.60;1.40
2174;DHT22;1093;51.424;11.764;2023-12-20T10:58:45;7.60;1.40
2174;DHT22;1093;51.424;11.764;2023-12-20T11:01:14;7.60;1.40
2174;DHT22;1093;51.424;11.764;2023-12-20T11:03:44;7.70;1.40
2174;DHT22;1093;51.424;11.764;2023-12-20T11:06:27;7.80;1.40
2174;DHT22;1093;51.424;11.764;2023-12-20T11:09:01;7.80;1.40
2174;DHT22;1093;51.424;11.764;2023-12-20T11:11:39;7.80;1.40
2174;DHT22;1093;51.424;11.764;2023-12-20T11:14:14;7.90;1.40
2174;DHT22;1093;51.424;11.764;2023-12-20T11:16:42;8.00;1.40
2174;DHT22;1093;51.424;11.764;2023-12-20T11:19:11;8.00;1.40
2174;DHT22;1093;51.424;11.764;2023-12-20T11:21:40;8.10;1.40
2174;DHT22;1093;51.424;11.764;2023-12-20T11:24:07;8.10;1.40
2174;DHT22;1093;51.424;11.764;2023-12-20T11:26:34;8.10;1.40
2174;DHT22;1093;51.424;11.764;2023-12-20T11:29:32;8.20;1.40
2174;DHT22;1093;51.424;11.764;2023-12-20T11:32:00;8.20;1.40
2174;DHT22;1093;51.424;11.764;2023-12-20T11:34:28;8.20;1.40
2174;DHT22;1093;51.424;11.764;2023-12-20T11:37:00;8.20;1.40
2174;DHT22;1093;51.424;11.764;2023-12-20T11:39:28;8.10;1.40
2174;DHT22;1093;51.424;11.764;2023-12-20T11:41:57;8.10;1.40
2174;DHT22;1093;51.424;11.764;2023-12-20T11:44:30;8.10;1.40
2174;DHT22;1093;51.424;11.764;2023-12-20T11:46:57;8.10;1.40
2174;DHT22;1093;51.424;11.764;2023-12-20T11:49:24;8.10;1.40
2174;DHT22;1093;51.424;11.764;2023-12-20T11:51:51;8.00;1.40
2174;DHT22;1093;51.424;11.764;2023-12-20T11:54:19;8.00;1.40
2174;DHT22;1093;51.424;11.764;2023-12-20T11:56:46;8.00;1.40
2174;DHT22;1093;51.424;11.764;2023-12-20T11:59:13;8.00;1.40
2174;DHT22;1093;51.424;11.764;2023-12-20T12:01:47;8.00;1.40
2174;DHT22;1093;51.424;11.764;2023-12-20T12:04:14;8.00;1.40
2174;DHT22;1093;51.424;11.764;2023-12-20T12:06:41;8.00;1.40
2174;DHT22;1093;51.424;11.764;2023-12-20T12:09:08;8.00;1.40
2174;DHT22;1093;51.424;11.764;2023-12-20T12:11:36;8.00;1.40
2174;DHT22;1093;51.424;11.764;2023-12-20T12:14:03;8.00;1.40
2174;DHT22;1093;51.424;11.764;2023-12-20T12:16:30;8.00;1.40
2174;DHT22;1093;51.424;11.764;2023-12-20T12:18:58;8.00;1.40
2174;DHT22;1093;51.424;11.764;2023-12-20T12:21:25;7.90;1.40
2174;DHT22;1093;51.424;11.764;2023-12-20T12:23:52;7.90;1.40
2174;DHT22;1093;51.424;11.764;2023-12-20T12:26:19;7.90;1.40
2174;DHT22;1093;51.424;11.764;2023-12-20T12:28:47;7.90;1.40
2174;DHT22;1093;51.424;11.764;2023-12-20T12:31:14;7.90;1.40
2174;DHT22;1093;51.424;11.764;2023-12-20T12:33:42;7.90;1.40
2174;DHT22;1093;51.424;11.764;2023-12-20T12:36:10;7.80;1.40
2174;DHT22;1093;51.424;11.764;2023-12-20T12:38:37;7.90;1.40
2174;DHT22;1093;51.424;11.764;2023-12-20T12:41:04;7.90;1.40
2174;DHT22;1093;51.424;11.764;2023-12-20T12:43:32;7.90;1.40
2174;DHT22;1093;51.424;11.764;2023-12-20T12:46:00;7.80;1.40
2174;DHT22;1093;51.424;11.764;2023-12-20T12:48:27;7.90;1.40
2174;DHT22;1093;51.424;11.764;2023-12-20T12:50:54;7.80;1.40
2174;DHT22;1093;51.424;11.764;2023-12-20T12:53:24;7.80;1.40
2174;DHT22;1093;51.424;11.764;2023-12-20T12:55:51;7.80;1.40
2174;DHT22;1093;51.424;11.764;2023-12-20T12:58:18;7.90;1.40
2174;DHT22;1093;51.424;11.764;2023-12-20T13:00:45;7.80;1.40
2174;DHT22;1093;51.424;11.764;2023-12-20T13:03:13;7.80;1.40
2174;DHT22;1093;51.424;11.764;2023-12-20T13:05:40;7.80;1.40
2174;DHT22;1093;51.424;11.764;2023-12-20T13:08:07;7.80;1.40
2174;DHT22;1093;51.424;11.764;2023-12-20T13:10:35;7.90;1.40
2174;DHT22;1093;51.424;11.764;2023-12-20T13:13:01;7.90;1.40
2174;DHT22;1093;51.424;11.764;2023-12-20T13:15:29;7.80;1.40
2174;DHT22;1093;51.424;11.764;2023-12-20T13:17:56;7.80;1.40
2174;DHT22;1093;51.424;11.764;2023-12-20T13:20:25;7.80;1.40
2174;DHT22;1093;51.424;11.764;2023-12-20T13:22:52;7.70;1.40
2174;DHT22;1093;51.424;11.764;2023-12-20T13:25:18;7.70;1.40
2174;DHT22;1093;51.424;11.764;2023-12-20T13:27:45;7.70;1.40
2174;DHT22;1093;51.424;11.764;2023-12-20T13:30:12;7.70;1.40
2174;DHT22;1093;51.424;11.764;2023-12-20T13:32:39;7.60;1.40
2174;DHT22;1093;51.424;11.764;2023-12-20T13:35:06;7.60;1.40
2174;DHT22;1093;51.424;11.764;2023-12-20T13:37:34;7.70;1.40
2174;DHT22;1093;51.424;11.764;2023-12-20T13:40:01;7.60;1.40
2174;DHT22;1093;51.424;11.764;2023-12-20T13:42:29;7.70;1.40
2174;DHT22;1093;51.424;11.764;2023-12-20T13:44:56;7.70;1.40
2174;DHT22;1093;51.424;11.764;2023-12-20T13:47:23;7.60;1.40
2174;DHT22;1093;51.424;11.764;2023-12-20T13:49:50;7.70;1.40
2174;DHT22;1093;51.424;11.764;2023-12-20T13:52:16;7.70;1.40
2174;DHT22;1093;51.424;11.764;2023-12-20T13:54:45;7.70;1.40
2174;DHT22;1093;51.424;11.764;2023-12-20T13:57:13;7.70;1.40
2174;DHT22;1093;51.424;11.764;2023-12-20T13:59:57;7.70;1.40
2174;DHT22;1093;51.424;11.764;2023-12-20T14:02:38;7.70;1.40
2174;DHT22;1093;51.424;11.764;2023-12-20T14:05:08;7.60;1.40
2174;DHT22;1093;51.424;11.764;2023-12-20T14:07:35;7.60;1.40
2174;DHT22;1093;51.424;11.764;2023-12-20T14:10:21;7.60;1.40
2174;DHT22;1093;51.424;11.764;2023-12-20T14:12:48;7.60;1.40
2174;DHT22;1093;51.424;11.764;2023-12-20T14:15:15;7.60;1.40
2174;DHT22;1093;51.424;11.764;2023-12-20T14:20:42;7.50;1.40
2174;DHT22;1093;51.424;11.764;2023-12-20T14:23:12;7.50;1.40
2174;DHT22;1093;51.424;11.764;2023-12-20T14:25:58;7.50;1.40
2174;DHT22;1093;51.424;11.764;2023-12-20T14:28:28;7.50;1.40
2174;DHT22;1093;51.424;11.764;2023-12-20T14:31:00;7.50;1.40
2174;DHT22;1093;51.424;11.764;2023-12-20T14:33:53;7.50;1.40
2174;DHT22;1093;51.424;11.764;2023-12-20T14:36:49;7.40;1.40
2174;DHT22;1093;51.424;11.764;2023-12-20T14:39:33;7.50;1.40
2174;DHT22;1093;51.424;11.764;2023-12-20T14:45:34;7.40;1.40
2174;DHT22;1093;51.424;11.764;2023-12-20T14:48:26;7.30;1.40
2174;DHT22;1093;51.424;11.764;2023-12-20T14:51:15;7.30;1.40
2174;DHT22;1093;51.424;11.764;2023-12-20T14:53:44;7.20;1.40
2174;DHT22;1093;51.424;11.764;2023-12-20T14:56:51;7.20;1.40
2174;DHT22;1093;51.424;11.764;2023-12-20T14:59:02;7.20;1.40
2174;DHT22;1093;51.424;11.764;2023-12-20T15:01:49;7.20;1.40
2174;DHT22;1093;51.424;11.764;2023-12-20T15:04:28;7.10;1.40
2174;DHT22;1093;51.424;11.764;2023-12-20T15:07:10;7.10;1.40
2174;DHT22;1093;51.424;11.764;2023-12-20T15:09:55;7.10;1.40
2174;DHT22;1093;51.424;11.764;2023-12-20T15:12:34;7.10;1.40
2174;DHT22;1093;51.424;11.764;2023-12-20T15:15:11;7.10;1.40
2174;DHT22;1093;51.424;11.764;2023-12-20T15:18:01;7.10;1.40
2174;DHT22;1093;51.424;11.764;2023-12-20T15:20:45;7.00;1.40
2174;DHT22;1093;51.424;11.764;2023-12-20T15:23:21;7.00;1.40
2174;DHT22;1093;51.424;11.764;2023-12-20T15:25:51;7.00;1.40
2174;DHT22;1093;51.424;11.764;2023-12-20T15:31:28;7.00;1.40
2174;DHT22;1093;51.424;11.764;2023-12-20T15:34:22;7.00;1.40
2174;DHT22;1093;51.424;11.764;2023-12-20T15:37:22;6.90;1.40
2174;DHT22;1093;51.424;11.764;2023-12-20T15:40:14;7.00;1.40
2174;DHT22;1093;51.424;11.764;2023-12-20T15:42:41;7.00;1.40
2174;DHT22;1093;51.424;11.764;2023-12-20T15:45:31;6.90;1.40
2174;DHT22;1093;51.424;11.764;2023-12-20T15:48:14;7.00;1.40
2174;DHT22;1093;51.424;11.764;2023-12-20T15:51:04;7.00;1.40
2174;DHT22;1093;51.424;11.764;2023-12-20T15:53:57;7.00;1.40
2174;DHT22;1093;51.424;11.764;2023-12-20T15:56:39;7.00;1.40
2174;DHT22;1093;51.424;11.764;2023-12-20T15:59:46;6.90;1.40
2174;DHT22;1093;51.424;11.764;2023-12-20T16:05:33;7.00;1.40
2174;DHT22;1093;51.424;11.764;2023-12-20T16:28:19;6.90;1.40
2174;DHT22;1093;51.424;11.764;2023-12-20T16:31:13;6.80;1.40
2174;DHT22;1093;51.424;11.764;2023-12-20T16:34:22;6.80;1.40
2174;DHT22;1093;51.424;11.764;2023-12-20T16:37:10;6.80;1.40
2174;DHT22;1093;51.424;11.764;2023-12-20T16:42:51;6.70;1.40
2174;DHT22;1093;51.424;11.764;2023-12-20T16:45:45;6.70;1.40
2174;DHT22;1093;51.424;11.764;2023-12-20T16:48:18;6.70;1.40
2174;DHT22;1093;51.424;11.764;2023-12-20T16:51:01;6.70;1.40
2174;DHT22;1093;51.424;11.764;2023-12-20T16:53:29;6.70;1.40
2174;DHT22;1093;51.424;11.764;2023-12-20T16:56:02;6.60;1.40
2174;DHT22;1093;51.424;11.764;2023-12-20T16:58:29;6.50;1.40
2174;DHT22;1093;51.424;11.764;2023-12-20T17:01:00;6.50;1.40
2174;DHT22;1093;51.424;11.764;2023-12-20T17:03:26;6.60;1.40
2174;DHT22;1093;51.424;11.764;2023-12-20T17:05:54;6.60;1.40
2174;DHT22;1093;51.424;11.764;2023-12-20T17:08:21;6.50;1.40
2174;DHT22;1093;51.424;11.764;2023-12-20T17:10:48;6.50;1.40
2174;DHT22;1093;51.424;11.764;2023-12-20T17:13:26;6.40;1.40
2174;DHT22;1093;51.424;11.764;2023-12-20T17:15:59;6.40;1.40
2174;DHT22;1093;51.424;11.764;2023-12-20T17:18:30;6.40;1.40
2174;DHT22;1093;51.424;11.764;2023-12-20T17:20:58;6.40;1.40
2174;DHT22;1093;51.424;11.764;2023-12-20T17:23:31;6.40;1.40
2174;DHT22;1093;51.424;11.764;2023-12-20T17:26:05;6.40;1.40
2174;DHT22;1093;51.424;11.764;2023-12-20T17:28:34;6.40;1.40
2174;DHT22;1093;51.424;11.764;2023-12-20T17:31:21;6.40;1.40
2174;DHT22;1093;51.424;11.764;2023-12-20T17:33:55;6.40;1.40
2174;DHT22;1093;51.424;11.764;2023-12-20T17:36:53;6.30;1.40
2174;DHT22;1093;51.424;11.764;2023-12-20T17:39:30;6.30;1.40
2174;DHT22;1093;51.424;11.764;2023-12-20T17:42:09;6.30;1.40
2174;DHT22;1093;51.424;11.764;2023-12-20T17:47:35;6.30;1.40
2174;DHT22;1093;51.424;11.764;2023-12-20T17:50:13;6.30;1.40
2174;DHT22;1093;51.424;11.764;2023-12-20T17:55:24;6.30;1.40
2174;DHT22;1093;51.424;11.764;2023-12-20T17:58:00;6.20;1.40
2174;DHT22;1093;51.424;11.764;2023-12-20T18:00:31;6.20;1.40
2174;DHT22;1093;51.424;11.764;2023-12-20T18:03:03;6.20;1.40
2174;DHT22;1093;51.424;11.764;2023-12-20T18:05:33;6.20;1.40
2174;DHT22;1093;51.424;11.764;2023-12-20T18:08:00;6.20;1.40
2174;DHT22;1093;51.424;11.764;2023-12-20T18:10:28;6.20;1.40
2174;DHT22;1093;51.424;11.764;2023-12-20T18:13:01;6.20;1.40
2174;DHT22;1093;51.424;11.764;2023-12-20T18:15:30;6.10;1.40
2174;DHT22;1093;51.424;11.764;2023-12-20T18:17:58;6.20;1.40
2174;DHT22;1093;51.424;11.764;2023-12-20T18:20:44;6.20;1.40
2174;DHT22;1093;51.424;11.764;2023-12-20T18:23:18;6.20;1.40
2174;DHT22;1093;51.424;11.764;2023-12-20T18:25:45;6.10;1.40
2174;DHT22;1093;51.424;11.764;2023-12-20T18:28:15;6.20;1.40
2174;DHT22;1093;51.424;11.764;2023-12-20T18:30:43;6.10;1.40
2174;DHT22;1093;51.424;11.764;2023-12-20T18:33:27;6.10;1.40
2174;DHT22;1093;51.424;11.764;2023-12-20T18:36:11;6.10;1.40
2174;DHT22;1093;51.424;11.764;2023-12-20T18:38:55;6.10;1.40
2174;DHT22;1093;51.424;11.764;2023-12-20T18:41:32;6.20;1.40
2174;DHT22;1093;51.424;11.764;2023-12-20T18:44:13;6.20;1.40
2174;DHT22;1093;51.424;11.764;2023-12-20T18:46:52;6.20;1.40
2174;DHT22;1093;51.424;11.764;2023-12-20T18:49:32;6.20;1.40
2174;DHT22;1093;51.424;11.764;2023-12-20T18:52:07;6.20;1.40
2174;DHT22;1093;51.424;11.764;2023-12-20T18:54:57;6.20;1.40
2174;DHT22;1093;51.424;11.764;2023-12-20T18:57:38;6.30;1.40
2174;DHT22;1093;51.424;11.764;2023-12-20T19:00:09;6.40;1.40
2174;DHT22;1093;51.424;11.764;2023-12-20T19:02:49;6.40;1.40
2174;DHT22;1093;51.424;11.764;2023-12-20T19:08:28;6.40;1.40
2174;DHT22;1093;51.424;11.764;2023-12-20T19:11:05;6.40;1.40
2174;DHT22;1093;51.424;11.764;2023-12-20T19:13:34;6.50;1.40
2174;DHT22;1093;51.424;11.764;2023-12-20T19:16:20;6.50;1.40
2174;DHT22;1093;51.424;11.764;2023-12-20T19:19:33;6.50;1.40
2174;DHT22;1093;51.424;11.764;2023-12-20T19:29:42;6.50;1.40
2174;DHT22;1093;51.424;11.764;2023-12-20T19:56:38;6.60;1.40
2174;DHT22;1093;51.424;11.764;2023-12-20T19:59:33;6.70;1.40
2174;DHT22;1093;51.424;11.764;2023-12-20T20:02:22;6.70;1.40
2174;DHT22;1093;51.424;11.764;2023-12-20T20:04:50;6.70;1.40
2174;DHT22;1093;51.424;11.764;2023-12-20T20:07:33;6.70;1.40
2174;DHT22;1093;51.424;11.764;2023-12-20T20:10:25;6.80;1.40
2174;DHT22;1093;51.424;11.764;2023-12-20T20:13:26;6.80;1.40
2174;DHT22;1093;51.424;11.764;2023-12-20T20:19:15;6.80;1.40
2174;DHT22;1093;51.424;11.764;2023-12-20T20:21:47;6.80;1.40
2174;DHT22;1093;51.424;11.764;2023-12-20T20:24:20;6.80;1.40
2174;DHT22;1093;51.424;11.764;2023-12-20T20:26:51;6.80;1.40
2174;DHT22;1093;51.424;11.764;2023-12-20T20:33:06;6.90;1.40
2174;DHT22;1093;51.424;11.764;2023-12-20T20:36:03;6.90;1.40
2174;DHT22;1093;51.424;11.764;2023-12-20T20:38:55;6.80;1.40
2174;DHT22;1093;51.424;11.764;2023-12-20T20:41:28;6.90;1.40
2174;DHT22;1093;51.424;11.764;2023-12-20T20:51:03;6.90;1.40
2174;DHT22;1093;51.424;11.764;2023-12-20T20:53:33;6.90;1.40
2174;DHT22;1093;51.424;11.764;2023-12-20T20:56:23;6.80;1.40
2174;DHT22;1093;51.424;11.764;2023-12-20T20:59:14;6.90;1.40
2174;DHT22;1093;51.424;11.764;2023-12-20T21:02:04;6.90;1.40
2174;DHT22;1093;51.424;11.764;2023-12-20T21:05:08;6.80;1.40
2174;DHT22;1093;51.424;11.764;2023-12-20T21:07:53;6.80;1.40
2174;DHT22;1093;51.424;11.764;2023-12-20T21:10:37;6.80;1.40
2174;DHT22;1093;51.424;11.764;2023-12-20T21:13:30;6.80;1.40
2174;DHT22;1093;51.424;11.764;2023-12-20T21:16:31;6.90;1.40
2174;DHT22;1093;51.424;11.764;2023-12-20T21:22:07;6.90;1.40
2174;DHT22;1093;51.424;11.764;2023-12-20T21:25:13;6.80;1.40
2174;DHT22;1093;51.424;11.764;2023-12-20T21:28:06;6.90;1.40
2174;DHT22;1093;51.424;11.764;2023-12-20T21:30:56;6.80;1.40
2174;DHT22;1093;51.424;11.764;2023-12-20T21:33:32;6.90;1.40
2174;DHT22;1093;51.424;11.764;2023-12-20T21:36:23;6.90;1.40
2174;DHT22;1093;51.424;11.764;2023-12-20T21:39:00;6.90;1.40
2174;DHT22;1093;51.424;11.764;2023-12-20T21:45:20;6.90;1.40
2174;DHT22;1093;51.424;11.764;2023-12-20T21:51:38;6.90;1.40
2174;DHT22;1093;51.424;11.764;2023-12-20T21:54:41;7.00;1.40
2174;DHT22;1093;51.424;11.764;2023-12-20T22:03:50;6.90;1.40
2174;DHT22;1093;51.424;11.764;2023-12-20T22:07:50;6.90;1.40
2174;DHT22;1093;51.424;11.764;2023-12-20T22:09:50;6.90;1.40